Time;durP1;ratioP1;P1;durP2;ratioP2;P2;SDS_P1;SDS_P2;PMS_P1;PMS_P2;Temp;Humidity;BMP_temperature;BMP_pressure;BME280_temperature;BME280_humidity;BME280_pressure;Samples;Min_cycle;Max_cycle;Signal;HPM_P1;HPM_P2
2021/04/29 00:02:16;;;;;;;3.00;2.50;;;;;;;13.44;28.53;99562.09;8007905;28;20049;-62
2021/04/29 00:06:07;;;;;;;5.18;2.83;;;;;;;13.38;28.64;99565.34;8007788;28;20033;-62
2021/04/29 00:09:58;;;;;;;5.50;2.78;;;;;;;13.34;28.76;99569.28;8007704;28;20029;-62
2021/04/29 00:13:49;;;;;;;4.57;2.63;;;;;;;13.31;28.64;99556.38;8012304;28;20042;-63
2021/04/29 00:17:40;;;;;;;7.13;2.92;;;;;;;13.29;28.86;99558.34;7989316;28;20029;-62
2021/04/29 00:21:30;;;;;;;6.25;3.25;;;;;;;13.27;28.48;99562.91;8005997;28;20048;-62
2021/04/29 00:25:21;;;;;;;6.15;2.50;;;;;;;13.25;28.90;99558.78;8005989;28;20048;-63
2021/04/29 00:29:15;;;;;;;5.88;2.80;;;;;;;13.20;28.91;99551.31;8000107;28;20055;-63
2021/04/29 00:33:05;;;;;;;5.65;2.53;;;;;;;13.17;29.10;99564.81;8008378;28;20041;-62
2021/04/29 00:36:56;;;;;;;6.88;2.95;;;;;;;13.13;29.26;99559.97;8006003;28;20043;-62
2021/04/29 00:40:47;;;;;;;8.10;2.42;;;;;;;13.06;29.28;99562.38;8008450;28;20044;-62
2021/04/29 00:44:37;;;;;;;5.60;2.78;;;;;;;13.03;29.57;99569.75;8010702;28;20059;-63
2021/04/29 00:48:28;;;;;;;4.65;2.55;;;;;;;12.99;29.62;99571.84;8010893;28;20090;-62
2021/04/29 00:52:18;;;;;;;5.85;2.63;;;;;;;12.91;29.53;99575.22;8007662;28;20051;-62
2021/04/29 00:56:10;;;;;;;5.53;2.53;;;;;;;12.87;29.78;99579.16;8011086;28;20028;-62
2021/04/29 01:00:03;;;;;;;4.25;2.75;;;;;;;12.81;29.77;99581.50;8018313;28;20521;-62
2021/04/29 01:03:59;;;;;;;4.22;2.63;;;;;;;12.75;29.97;99582.94;8010448;28;20037;-62
2021/04/29 01:07:54;;;;;;;4.95;2.55;;;;;;;12.68;29.95;99581.06;8016288;28;20025;-62
2021/04/29 01:11:50;;;;;;;9.00;2.65;;;;;;;12.60;30.14;99578.31;8016588;28;20037;-62
2021/04/29 01:15:42;;;;;;;5.70;2.80;;;;;;;12.54;30.08;99580.50;8013314;28;20128;-63
2021/04/29 01:19:42;;;;;;;3.47;2.17;;;;;;;12.48;30.24;99581.09;8013448;28;20025;-62
2021/04/29 01:23:45;;;;;;;5.00;2.17;;;;;;;12.42;30.39;99578.22;8010487;28;20041;-62
2021/04/29 01:27:36;;;;;;;6.15;2.28;;;;;;;12.33;30.45;99579.06;8009017;28;20558;-62
2021/04/29 01:31:32;;;;;;;4.13;2.20;;;;;;;12.27;30.58;99580.47;8011203;28;20086;-62
2021/04/29 01:35:23;;;;;;;4.05;2.40;;;;;;;12.22;30.65;99576.63;8010408;28;20043;-62
2021/04/29 01:39:16;;;;;;;5.57;2.85;;;;;;;12.13;30.90;99572.19;8009904;28;20524;-63
2021/04/29 01:43:07;;;;;;;3.42;2.15;;;;;;;12.12;30.90;99584.53;8010036;28;20071;-62
2021/04/29 01:46:59;;;;;;;5.15;2.72;;;;;;;12.07;31.15;99578.84;8022838;28;20045;-63
2021/04/29 01:50:50;;;;;;;3.95;2.53;;;;;;;12.03;31.20;99585.38;8009874;28;20025;-63
2021/04/29 01:54:41;;;;;;;3.85;2.72;;;;;;;12.01;31.49;99595.22;8014141;28;20075;-62
2021/04/29 01:58:32;;;;;;;20.02;2.72;;;;;;;11.98;31.46;99592.84;8013611;28;20029;-63
2021/04/29 02:02:24;;;;;;;4.03;2.63;;;;;;;11.94;31.84;99589.69;8008662;28;20056;-65
2021/04/29 02:06:14;;;;;;;7.20;2.60;;;;;;;11.93;31.87;99595.94;8008877;28;20087;-65
2021/04/29 02:10:10;;;;;;;4.18;2.97;;;;;;;11.85;31.76;99589.72;8009817;28;20041;-65
2021/04/29 02:14:04;;;;;;;4.30;2.63;;;;;;;11.90;32.25;99598.00;8009445;28;20041;-65
2021/04/29 02:18:05;;;;;;;5.25;2.85;;;;;;;11.88;32.29;99592.88;8008479;28;20091;-64
2021/04/29 02:21:57;;;;;;;4.28;2.92;;;;;;;11.86;32.33;99588.72;8017046;28;20091;-64
2021/04/29 02:25:52;;;;;;;4.47;3.08;;;;;;;11.91;32.48;99603.13;8024867;28;20452;-65
2021/04/29 02:29:43;;;;;;;6.32;2.85;;;;;;;11.94;32.56;99604.63;8015842;28;20028;-64
2021/04/29 02:33:34;;;;;;;5.90;3.13;;;;;;;11.94;32.66;99613.34;8016647;28;20040;-65
2021/04/29 02:37:25;;;;;;;4.60;3.05;;;;;;;11.91;32.79;99586.50;8012522;28;20484;-64
2021/04/29 02:41:16;;;;;;;5.40;3.35;;;;;;;11.91;32.90;99605.75;8009978;28;20163;-65
2021/04/29 02:45:09;;;;;;;6.95;3.30;;;;;;;11.93;32.80;99603.81;8006913;28;20049;-65
2021/04/29 02:49:00;;;;;;;5.00;3.47;;;;;;;11.89;33.05;99593.72;8007347;28;20033;-64
2021/04/29 02:52:52;;;;;;;5.40;3.20;;;;;;;11.91;33.28;99600.50;8007707;28;20025;-64
2021/04/29 02:56:43;;;;;;;5.43;3.67;;;;;;;11.91;33.29;99603.13;8009198;28;20024;-65
2021/04/29 03:00:37;;;;;;;4.93;3.30;;;;;;;11.88;33.18;99595.50;8006262;28;20040;-64
2021/04/29 03:04:27;;;;;;;8.70;3.72;;;;;;;11.87;33.48;99607.00;8008132;28;20041;-64
2021/04/29 03:08:18;;;;;;;8.48;3.88;;;;;;;11.90;33.45;99614.59;8006851;28;20041;-65
2021/04/29 03:12:09;;;;;;;4.47;3.13;;;;;;;11.89;33.63;99614.78;8012680;28;20043;-65
2021/04/29 03:16:09;;;;;;;6.32;3.47;;;;;;;11.88;33.59;99613.09;8005730;28;20033;-64
2021/04/29 03:20:00;;;;;;;5.50;3.92;;;;;;;11.85;33.67;99619.47;8009721;28;20051;-65
2021/04/29 03:23:50;;;;;;;6.32;3.53;;;;;;;11.85;33.61;99622.13;8009598;28;20032;-64
2021/04/29 03:27:41;;;;;;;4.65;3.50;;;;;;;11.86;33.63;99620.28;8012637;28;20131;-64
2021/04/29 03:31:32;;;;;;;6.18;3.58;;;;;;;11.85;33.84;99619.47;8009612;28;20059;-65
2021/04/29 03:35:23;;;;;;;4.72;3.42;;;;;;;11.87;33.87;99619.31;8007334;28;20510;-64
2021/04/29 03:39:28;;;;;;;6.18;3.90;;;;;;;11.85;34.08;99618.66;8005609;28;20060;-64
2021/04/29 03:43:19;;;;;;;6.75;4.10;;;;;;;11.83;34.12;99629.31;8006814;28;20118;-64
2021/04/29 03:47:09;;;;;;;12.10;4.28;;;;;;;11.82;33.98;99643.44;8014147;28;20660;-64
2021/04/29 03:51:00;;;;;;;8.55;4.95;;;;;;;11.77;34.07;99647.47;8006647;28;20032;-64
2021/04/29 03:54:51;;;;;;;7.00;4.60;;;;;;;11.68;34.35;99648.28;8009348;28;20254;-64
2021/04/29 03:58:41;;;;;;;6.90;4.07;;;;;;;11.64;34.43;99650.34;8015712;28;20115;-65
2021/04/29 04:02:32;;;;;;;14.02;5.55;;;;;;;11.60;34.37;99657.66;8006243;28;20045;-65
2021/04/29 04:06:23;;;;;;;8.77;4.78;;;;;;;11.56;34.33;99653.63;8011679;28;20033;-64
2021/04/29 04:10:23;;;;;;;5.97;3.85;;;;;;;11.57;34.52;99659.75;8012735;28;20055;-64
2021/04/29 04:14:13;;;;;;;7.95;4.65;;;;;;;11.58;34.60;99664.03;8006726;28;20500;-65
2021/04/29 04:18:04;;;;;;;7.78;4.57;;;;;;;11.54;34.36;99657.38;8006249;28;20551;-64
2021/04/29 04:21:55;;;;;;;11.05;4.47;;;;;;;11.53;34.61;99666.22;8017199;28;20065;-65
2021/04/29 04:25:45;;;;;;;7.85;5.05;;;;;;;11.49;34.66;99672.72;8008320;28;20043;-64
2021/04/29 04:29:36;;;;;;;6.70;4.63;;;;;;;11.44;34.73;99669.69;8011075;28;20500;-65
2021/04/29 04:33:27;;;;;;;8.57;4.75;;;;;;;11.37;34.78;99672.00;8011446;28;20119;-64
2021/04/29 04:37:18;;;;;;;7.38;4.82;;;;;;;11.35;34.79;99673.13;8018297;28;20025;-64
2021/04/29 04:41:09;;;;;;;8.40;5.50;;;;;;;11.37;34.92;99686.94;8009823;28;20094;-64
2021/04/29 04:44:59;;;;;;;12.73;6.25;;;;;;;11.34;34.96;99693.31;8011517;28;20111;-65
2021/04/29 04:48:50;;;;;;;7.72;5.40;;;;;;;11.30;35.02;99707.69;8010901;28;20118;-65
2021/04/29 04:52:41;;;;;;;8.35;5.20;;;;;;;11.24;34.80;99704.75;8010534;28;20044;-65
2021/04/29 04:56:31;;;;;;;8.63;5.78;;;;;;;11.22;35.01;99714.59;8008882;28;20029;-64
2021/04/29 05:00:22;;;;;;;9.00;6.22;;;;;;;11.16;35.06;99727.28;8013099;28;20139;-64
2021/04/29 05:04:13;;;;;;;8.98;5.97;;;;;;;11.13;34.86;99726.72;8008687;28;20095;-64
2021/04/29 05:08:04;;;;;;;12.18;7.00;;;;;;;11.11;35.24;99726.00;7996938;28;20060;-64
2021/04/29 05:11:54;;;;;;;10.68;6.95;;;;;;;11.09;35.16;99733.22;8000522;28;20098;-65
2021/04/29 05:15:45;;;;;;;15.63;7.63;;;;;;;11.10;35.24;99738.34;8000145;28;20448;-64
2021/04/29 05:19:36;;;;;;;12.77;6.93;;;;;;;11.11;35.37;99741.78;8024670;28;20610;-64
2021/04/29 05:23:26;;;;;;;13.15;7.53;;;;;;;11.09;35.16;99736.69;8009088;28;20045;-65
2021/04/29 05:27:17;;;;;;;11.63;7.18;;;;;;;11.09;35.15;99744.56;8015653;28;20025;-65
2021/04/29 05:31:07;;;;;;;12.50;7.25;;;;;;;11.27;35.34;99731.63;8006195;28;20048;-64
2021/04/29 05:34:59;;;;;;;11.75;7.07;;;;;;;11.61;35.37;99738.25;8002195;28;20041;-65
2021/04/29 05:38:49;;;;;;;15.35;7.75;;;;;;;11.75;35.30;99734.41;8008266;28;20025;-65
2021/04/29 05:42:41;;;;;;;12.80;7.90;;;;;;;11.78;35.27;99743.81;8009331;28;20039;-65
2021/04/29 05:46:31;;;;;;;13.68;6.90;;;;;;;11.99;35.14;99739.28;8004655;28;20029;-65
2021/04/29 05:50:22;;;;;;;13.95;7.18;;;;;;;12.26;35.20;99743.88;8007872;28;20047;-64
2021/04/29 05:54:13;;;;;;;11.07;7.40;;;;;;;12.45;35.09;99747.31;8009746;28;20524;-65
2021/04/29 05:58:03;;;;;;;10.43;7.38;;;;;;;12.48;34.89;99752.28;8021405;28;20366;-65
2021/04/29 06:01:54;;;;;;;13.68;6.47;;;;;;;12.53;34.77;99750.06;8004011;28;20849;-64
2021/04/29 06:05:45;;;;;;;11.13;7.30;;;;;;;12.61;34.76;99764.38;8006575;28;20025;-64
2021/04/29 06:09:35;;;;;;;10.15;6.88;;;;;;;12.83;34.80;99757.00;8008764;28;20021;-65
2021/04/29 06:13:26;;;;;;;14.77;6.40;;;;;;;13.42;34.75;99761.09;8010232;28;20469;-65
2021/04/29 06:17:17;;;;;;;9.48;6.82;;;;;;;14.04;34.84;99748.94;8008457;28;20039;-65
2021/04/29 06:21:07;;;;;;;9.23;6.78;;;;;;;14.72;34.60;99758.78;8012459;28;20597;-64
2021/04/29 06:24:58;;;;;;;13.80;6.95;;;;;;;15.44;34.22;99765.50;8008809;28;20048;-65
2021/04/29 06:28:49;;;;;;;10.73;6.85;;;;;;;16.07;33.98;99762.38;8008363;28;20036;-65
2021/04/29 06:32:40;;;;;;;9.88;6.93;;;;;;;16.66;33.47;99766.53;8008511;28;20126;-65
2021/04/29 06:36:31;;;;;;;12.55;7.60;;;;;;;17.25;33.12;99756.53;8009734;28;20524;-64
2021/04/29 06:40:21;;;;;;;9.95;7.10;;;;;;;17.89;32.85;99766.06;8010505;28;20124;-65
2021/04/29 06:44:13;;;;;;;13.43;8.13;;;;;;;18.42;32.45;99770.50;8016263;28;20043;-65
2021/04/29 06:48:04;;;;;;;13.18;9.30;;;;;;;18.82;32.09;99775.50;8007221;28;20051;-65
2021/04/29 06:51:55;;;;;;;12.13;9.40;;;;;;;19.22;31.90;99765.47;8007496;28;20051;-63
2021/04/29 06:55:46;;;;;;;17.10;10.45;;;;;;;19.56;31.69;99775.53;8005216;28;20040;-64
2021/04/29 06:59:36;;;;;;;15.13;10.82;;;;;;;19.80;31.47;99778.75;8007783;28;20628;-63
2021/04/29 07:03:27;;;;;;;20.75;11.10;;;;;;;19.73;30.84;99782.31;8007240;28;20032;-63
2021/04/29 07:07:18;;;;;;;18.92;12.85;;;;;;;19.62;30.96;99782.81;8007768;28;20036;-63
2021/04/29 07:11:09;;;;;;;28.10;15.82;;;;;;;19.31;30.77;99794.47;8010845;28;20037;-63
2021/04/29 07:14:59;;;;;;;20.98;14.35;;;;;;;19.31;30.88;99794.47;8008660;28;20090;-63
2021/04/29 07:18:50;;;;;;;23.20;15.15;;;;;;;19.63;30.90;99798.59;8007720;28;20045;-63
2021/04/29 07:22:41;;;;;;;24.63;14.95;;;;;;;19.98;30.30;99804.16;8007161;28;20090;-63
2021/04/29 07:26:33;;;;;;;26.85;16.30;;;;;;;19.99;30.51;99803.97;8014680;28;20464;-63
2021/04/29 07:30:24;;;;;;;21.27;14.57;;;;;;;19.84;30.42;99808.50;8006638;28;20439;-63
2021/04/29 07:34:15;;;;;;;34.38;15.23;;;;;;;19.68;30.14;99806.06;8010316;28;20036;-63
2021/04/29 07:38:05;;;;;;;21.90;14.50;;;;;;;19.73;30.03;99806.28;8010479;28;20512;-63
2021/04/29 07:41:57;;;;;;;23.70;14.20;;;;;;;19.72;30.06;99797.47;8009683;28;20048;-63
2021/04/29 07:45:47;;;;;;;21.50;14.38;;;;;;;20.05;29.71;99813.09;8002151;28;20119;-63
2021/04/29 07:49:38;;;;;;;23.70;15.10;;;;;;;20.56;29.43;99805.81;8006198;28;20037;-63
2021/04/29 07:53:29;;;;;;;22.83;15.07;;;;;;;21.07;29.41;99807.28;8006143;28;20047;-62
2021/04/29 07:57:20;;;;;;;23.92;14.85;;;;;;;21.26;28.95;99800.44;8006064;28;20036;-63
2021/04/29 08:01:11;;;;;;;24.10;16.13;;;;;;;21.80;28.87;99800.50;8005614;28;20041;-63
2021/04/29 08:05:02;;;;;;;18.33;14.02;;;;;;;22.34;28.38;99805.00;8005848;28;20041;-63
2021/04/29 08:08:55;;;;;;;20.58;15.05;;;;;;;22.50;28.12;99808.13;8014043;28;20043;-63
2021/04/29 08:12:46;;;;;;;21.70;14.35;;;;;;;22.85;27.96;99816.81;8010530;28;20040;-63
2021/04/29 08:16:36;;;;;;;21.35;14.73;;;;;;;23.18;27.54;99818.66;8006019;28;20037;-62
2021/04/29 08:20:27;;;;;;;21.00;15.35;;;;;;;23.51;27.28;99818.59;8011878;28;20059;-62
2021/04/29 08:24:17;;;;;;;18.52;13.88;;;;;;;23.98;26.94;99828.16;8010912;28;20040;-63
2021/04/29 08:28:08;;;;;;;21.90;14.07;;;;;;;24.36;26.18;99829.00;8004980;28;20580;-67
2021/04/29 08:32:00;;;;;;;23.58;14.02;;;;;;;24.75;26.17;99834.06;8004255;28;20052;-65
2021/04/29 08:35:50;;;;;;;25.85;13.43;;;;;;;25.03;25.70;99835.53;8004116;28;20045;-66
2021/04/29 08:39:41;;;;;;;26.98;13.57;;;;;;;24.85;25.61;99851.56;8004262;28;20094;-65
2021/04/29 08:43:32;;;;;;;18.25;11.68;;;;;;;23.97;25.43;99859.50;8011139;28;20045;-65
2021/04/29 08:47:24;;;;;;;19.95;12.40;;;;;;;23.11;25.75;99864.22;7997403;28;20668;-65
2021/04/29 08:51:14;;;;;;;18.63;12.45;;;;;;;22.12;25.88;99878.41;8013285;28;20572;-65
2021/04/29 08:55:06;;;;;;;19.70;12.90;;;;;;;21.18;26.31;99873.47;8005547;28;20041;-65
2021/04/29 08:58:59;;;;;;;15.55;11.60;;;;;;;20.39;26.46;99879.91;8005082;28;20512;-64
2021/04/29 09:02:50;;;;;;;15.98;10.80;;;;;;;20.34;26.77;99863.66;8005460;28;20064;-66
2021/04/29 09:06:44;;;;;;;14.88;10.93;;;;;;;20.37;27.25;99873.13;8007287;28;20033;-66
2021/04/29 09:10:42;;;;;;;14.70;11.15;;;;;;;20.45;27.40;99867.66;8015957;28;20033;-66
2021/04/29 09:14:41;;;;;;;15.02;10.75;;;;;;;20.60;27.62;99873.78;8011119;28;20057;-66
2021/04/29 09:18:34;;;;;;;16.00;11.57;;;;;;;20.73;27.68;99873.91;8009968;28;20516;-66
2021/04/29 09:22:25;;;;;;;18.95;11.23;;;;;;;20.58;27.64;99887.34;8008940;28;20037;-66
2021/04/29 09:26:17;;;;;;;16.10;10.98;;;;;;;20.34;27.11;99882.34;8009609;28;20044;-67
2021/04/29 09:30:09;;;;;;;15.50;11.13;;;;;;;20.03;27.49;99895.91;8010670;28;20548;-66
2021/04/29 09:34:01;;;;;;;14.95;10.82;;;;;;;19.70;27.64;99895.44;8011052;28;20139;-65
2021/04/29 09:37:52;;;;;;;13.82;10.02;;;;;;;19.46;27.63;99900.19;8010435;28;20057;-66
2021/04/29 09:41:48;;;;;;;16.60;9.80;;;;;;;19.24;27.46;99888.56;8020643;28;20036;-66
2021/04/29 09:45:39;;;;;;;14.70;8.75;;;;;;;19.05;27.37;99886.41;8009569;28;20040;-66
2021/04/29 09:49:34;;;;;;;10.93;7.90;;;;;;;18.84;27.81;99882.59;8009686;28;20059;-66
2021/04/29 09:53:25;;;;;;;14.55;8.98;;;;;;;18.76;27.69;99893.28;8005210;28;20029;-65
2021/04/29 09:57:21;;;;;;;12.07;8.32;;;;;;;18.67;27.58;99901.50;8009658;28;20033;-65
2021/04/29 10:01:12;;;;;;;11.00;8.07;;;;;;;18.50;27.54;99887.47;8009243;28;20068;-65
2021/04/29 10:05:04;;;;;;;11.82;8.32;;;;;;;18.32;27.70;99887.72;8006674;28;20368;-66
2021/04/29 10:08:55;;;;;;;12.25;7.95;;;;;;;18.17;27.45;99884.16;8008434;28;20437;-66
2021/04/29 10:12:47;;;;;;;9.98;7.57;;;;;;;18.06;27.58;99894.34;8012987;28;20594;-65
2021/04/29 10:16:38;;;;;;;11.93;8.15;;;;;;;17.86;27.64;99902.72;8008452;28;20463;-65
2021/04/29 10:20:31;;;;;;;11.82;7.90;;;;;;;17.59;27.82;99899.63;8016772;28;20065;-65
2021/04/29 10:24:22;;;;;;;9.82;7.10;;;;;;;17.46;27.61;99903.63;8008437;28;20055;-66
2021/04/29 10:28:12;;;;;;;9.48;6.00;;;;;;;17.27;27.37;99904.00;8012548;28;20032;-66
2021/04/29 10:32:09;;;;;;;9.02;6.53;;;;;;;17.11;27.60;99898.72;8006654;28;20128;-66
2021/04/29 10:36:00;;;;;;;9.02;6.07;;;;;;;16.96;27.70;99906.50;8012180;28;20053;-65
2021/04/29 10:39:56;;;;;;;16.70;7.55;;;;;;;16.87;27.92;99898.66;8002593;28;20032;-67
2021/04/29 10:43:48;;;;;;;8.05;5.88;;;;;;;16.72;28.00;99914.41;8007353;28;20092;-67
2021/04/29 10:47:40;;;;;;;8.38;6.22;;;;;;;16.53;28.40;99930.63;8010297;28;20413;-67
2021/04/29 10:51:36;;;;;;;11.07;6.07;;;;;;;16.26;28.82;99936.97;8007753;28;20068;-67
2021/04/29 10:55:30;;;;;;;8.65;5.85;;;;;;;15.97;29.03;99947.94;8001973;28;20037;-67
2021/04/29 10:59:21;;;;;;;11.40;6.72;;;;;;;15.74;29.32;99968.00;8007001;28;20068;-67
2021/04/29 11:03:12;;;;;;;9.07;5.55;;;;;;;15.53;29.41;99968.34;8007078;28;20044;-69
2021/04/29 11:07:12;;;;;;;11.07;5.00;;;;;;;15.53;29.73;99971.00;7996505;28;21567;-67
2021/04/29 11:11:03;;;;;;;9.65;5.30;;;;;;;15.56;29.58;99968.03;8016622;28;20041;-67
2021/04/29 11:14:54;;;;;;;6.47;4.18;;;;;;;15.64;29.89;99976.03;8011153;28;20085;-67
2021/04/29 11:18:45;;;;;;;5.45;4.47;;;;;;;15.73;29.84;99977.75;7993864;28;20041;-68
2021/04/29 11:22:37;;;;;;;6.65;4.28;;;;;;;15.83;29.79;99971.53;8000464;28;20178;-67
2021/04/29 11:26:33;;;;;;;10.30;4.32;;;;;;;15.87;29.77;99983.47;8013849;28;20721;-68
2021/04/29 11:30:24;;;;;;;6.07;3.75;;;;;;;15.82;29.75;99977.81;8010816;28;20098;-68
2021/04/29 11:34:15;;;;;;;7.97;4.00;;;;;;;15.79;29.65;99975.47;8014374;28;20029;-68
2021/04/29 11:38:08;;;;;;;5.50;3.25;;;;;;;15.68;29.73;99977.38;8012969;28;20028;-65
2021/04/29 11:41:59;;;;;;;5.53;3.38;;;;;;;15.62;29.91;99977.19;8015129;28;20566;-65
2021/04/29 11:45:51;;;;;;;4.78;3.17;;;;;;;15.62;29.95;99985.94;8018055;28;20373;-66
2021/04/29 11:49:42;;;;;;;5.40;3.42;;;;;;;15.54;29.79;100006.25;8012055;28;20385;-66
2021/04/29 11:53:32;;;;;;;4.00;3.15;;;;;;;15.29;29.80;100023.75;8017799;28;20497;-66
2021/04/29 11:57:23;;;;;;;10.60;3.88;;;;;;;15.05;29.96;100028.75;8017179;28;20036;-66
2021/04/29 12:01:15;;;;;;;6.25;3.00;;;;;;;14.90;29.83;100031.09;8017214;28;20044;-65
2021/04/29 12:05:06;;;;;;;4.70;3.45;;;;;;;14.83;30.06;100031.84;8016391;28;20488;-66
2021/04/29 12:08:56;;;;;;;4.80;3.15;;;;;;;14.79;29.89;100053.25;8012455;28;20968;-66
2021/04/29 12:12:50;;;;;;;4.00;3.00;;;;;;;14.60;30.08;100058.66;8015714;28;20033;-65
2021/04/29 12:16:41;;;;;;;6.03;2.85;;;;;;;14.48;30.03;100070.41;8014822;28;20098;-66
2021/04/29 12:20:32;;;;;;;4.00;2.83;;;;;;;14.28;30.14;100072.28;8012869;28;20052;-65
2021/04/29 12:24:23;;;;;;;5.53;3.10;;;;;;;14.09;30.36;100096.06;8014319;28;20077;-67
2021/04/29 12:28:18;;;;;;;3.60;2.55;;;;;;;13.91;30.59;100113.63;8016881;28;20066;-66
2021/04/29 12:32:09;;;;;;;3.33;2.35;;;;;;;13.80;30.49;100111.16;8015096;28;20768;-65
2021/04/29 12:36:07;;;;;;;6.65;2.65;;;;;;;13.88;30.56;100117.38;8015826;28;20037;-66
2021/04/29 12:39:58;;;;;;;5.40;3.00;;;;;;;13.82;30.93;100136.44;8016365;28;20039;-65
2021/04/29 12:44:02;;;;;;;6.57;3.08;;;;;;;13.76;31.21;100157.25;8017135;28;20060;-66
2021/04/29 12:47:55;;;;;;;5.00;3.40;;;;;;;13.64;31.09;100172.41;8021285;28;20178;-65
2021/04/29 12:51:46;;;;;;;4.72;3.70;;;;;;;13.43;31.62;100177.75;8018562;28;20056;-66
2021/04/29 12:55:40;;;;;;;4.93;3.75;;;;;;;13.26;31.40;100186.31;8022477;28;20040;-66
2021/04/29 12:59:31;;;;;;;7.30;4.45;;;;;;;13.10;31.60;100201.81;8018724;28;20500;-65
2021/04/29 13:03:38;;;;;;;6.93;3.92;;;;;;;12.84;31.79;100193.56;8018978;28;20828;-66
2021/04/29 13:07:31;;;;;;;6.53;4.10;;;;;;;12.61;31.76;100207.84;8021666;28;20486;-65
2021/04/29 13:11:34;;;;;;;7.18;3.80;;;;;;;12.41;32.24;100204.22;8016150;28;20086;-66
2021/04/29 13:15:29;;;;;;;6.00;3.42;;;;;;;12.23;32.41;100207.56;8016490;28;20044;-65
2021/04/29 13:19:20;;;;;;;4.32;3.28;;;;;;;12.08;32.24;100210.50;8012825;28;20059;-66
2021/04/29 13:23:11;;;;;;;6.97;3.92;;;;;;;12.03;32.63;100215.31;8017290;28;20110;-65
2021/04/29 13:27:03;;;;;;;5.35;2.97;;;;;;;11.96;32.63;100216.78;8021803;28;20099;-65
2021/04/29 13:30:53;;;;;;;2.92;2.47;;;;;;;11.91;32.53;100228.66;8017747;28;20606;-65
2021/04/29 13:34:44;;;;;;;4.53;2.85;;;;;;;11.89;32.59;100244.59;8020638;28;20089;-65
2021/04/29 13:38:35;;;;;;;4.60;2.95;;;;;;;11.73;32.55;100238.84;8019757;28;20017;-65
2021/04/29 13:42:25;;;;;;;6.82;2.58;;;;;;;11.59;32.59;100245.25;8022878;28;20042;-66
2021/04/29 13:46:16;;;;;;;3.33;2.28;;;;;;;11.50;32.79;100237.22;8020986;28;20493;-65
2021/04/29 13:50:07;;;;;;;3.78;2.72;;;;;;;11.51;32.74;100249.41;8018200;28;20017;-65
2021/04/29 13:53:58;;;;;;;5.43;2.90;;;;;;;11.48;32.57;100262.81;8021458;28;21330;-65
2021/04/29 13:57:49;;;;;;;3.47;2.28;;;;;;;11.38;32.80;100260.06;8019866;28;20032;-65
2021/04/29 14:01:40;;;;;;;6.32;3.70;;;;;;;11.35;32.83;100262.13;8020800;28;20049;-65
2021/04/29 14:05:47;;;;;;;4.00;2.73;;;;;;;11.21;32.83;100252.66;8021523;28;20479;-66
2021/04/29 14:09:37;;;;;;;5.03;2.88;;;;;;;11.24;32.95;100262.94;8018875;28;20032;-66
2021/04/29 14:13:29;;;;;;;5.20;3.38;;;;;;;11.22;32.87;100269.28;8017408;28;20037;-68
2021/04/29 14:17:20;;;;;;;4.25;2.55;;;;;;;11.22;33.03;100271.91;8017921;28;20047;-65
2021/04/29 14:21:10;;;;;;;3.78;2.38;;;;;;;11.15;33.25;100274.16;8013518;28;20055;-66
2021/04/29 14:25:01;;;;;;;5.68;2.67;;;;;;;11.20;33.13;100290.44;8016942;28;20044;-65
2021/04/29 14:28:52;;;;;;;2.97;2.33;;;;;;;11.12;33.16;100284.94;8017712;28;20024;-66
2021/04/29 14:32:43;;;;;;;3.67;2.40;;;;;;;11.04;33.40;100301.28;8018639;28;20089;-65
2021/04/29 14:36:33;;;;;;;3.47;2.20;;;;;;;10.97;33.32;100310.63;8019770;28;20028;-65
2021/04/29 14:40:24;;;;;;;5.18;2.38;;;;;;;10.93;33.44;100317.06;8016229;28;20489;-65
2021/04/29 14:44:15;;;;;;;5.13;2.45;;;;;;;10.91;33.72;100329.47;8020401;28;20035;-65
2021/04/29 14:48:09;;;;;;;3.10;2.55;;;;;;;10.85;33.79;100326.47;8016983;28;20041;-65
2021/04/29 14:52:00;;;;;;;3.80;2.50;;;;;;;10.80;33.92;100331.22;8014546;28;20040;-65
2021/04/29 14:55:50;;;;;;;5.65;2.67;;;;;;;10.72;34.00;100339.69;8018727;28;20119;-65
2021/04/29 14:59:41;;;;;;;3.38;2.33;;;;;;;10.64;34.03;100340.28;8019467;28;20111;-65
2021/04/29 15:03:32;;;;;;;5.45;2.20;;;;;;;10.73;34.01;100348.41;8018938;28;20450;-65
2021/04/29 15:07:23;;;;;;;3.90;2.78;;;;;;;10.78;34.28;100343.66;8018154;28;20033;-65
2021/04/29 15:11:33;;;;;;;3.17;2.45;;;;;;;10.86;34.25;100343.91;8018613;28;20037;-65
2021/04/29 15:15:24;;;;;;;4.80;2.92;;;;;;;10.87;34.31;100353.47;8014698;28;20397;-65
2021/04/29 15:19:15;;;;;;;6.68;2.60;;;;;;;10.84;34.17;100357.16;8012230;28;20640;-67
2021/04/29 15:23:06;;;;;;;4.72;2.75;;;;;;;10.77;34.29;100358.59;8020212;28;20067;-65
2021/04/29 15:26:56;;;;;;;5.25;2.88;;;;;;;10.79;34.25;100367.19;8018482;28;20397;-65
2021/04/29 15:30:47;;;;;;;6.53;2.65;;;;;;;10.85;34.22;100379.88;8015787;28;20063;-66
2021/04/29 15:34:37;;;;;;;3.45;2.45;;;;;;;10.88;34.17;100379.63;8016523;28;20048;-65
2021/04/29 15:38:28;;;;;;;6.20;3.08;;;;;;;10.80;34.16;100375.91;8016602;28;20048;-65
2021/04/29 15:42:19;;;;;;;7.00;2.90;;;;;;;10.82;34.23;100387.97;8015343;28;20612;-65
2021/04/29 15:46:09;;;;;;;5.47;3.17;;;;;;;10.88;34.25;100387.50;8019998;28;20044;-65
2021/04/29 15:50:00;;;;;;;6.82;3.00;;;;;;;10.93;34.12;100389.81;8014879;28;20028;-65
2021/04/29 15:53:56;;;;;;;10.50;2.95;;;;;;;10.81;34.22;100388.09;8018546;28;20043;-65
2021/04/29 15:57:46;;;;;;;4.82;2.88;;;;;;;10.87;34.34;100398.97;8016318;28;20036;-65
2021/04/29 16:01:37;;;;;;;5.30;2.92;;;;;;;10.86;34.24;100410.41;8016596;28;20040;-66
2021/04/29 16:05:28;;;;;;;6.55;3.50;;;;;;;10.83;34.23;100420.31;8015552;28;20644;-65
2021/04/29 16:09:19;;;;;;;5.43;3.42;;;;;;;10.75;34.25;100415.66;8016158;28;20036;-65
2021/04/29 16:13:12;;;;;;;5.68;3.20;;;;;;;10.67;34.27;100412.75;8020591;28;20109;-66
2021/04/29 16:17:03;;;;;;;8.40;2.92;;;;;;;10.65;34.04;100423.34;8024576;28;20442;-66
2021/04/29 16:20:54;;;;;;;5.30;3.05;;;;;;;10.66;34.20;100425.03;8017768;28;20028;-65
2021/04/29 16:24:45;;;;;;;7.60;3.40;;;;;;;10.59;34.15;100430.84;8021284;28;20044;-66
2021/04/29 16:28:39;;;;;;;3.60;2.85;;;;;;;10.55;34.29;100432.03;8019866;28;20031;-65
2021/04/29 16:32:30;;;;;;;6.10;3.30;;;;;;;10.56;34.29;100438.97;8021393;28;21689;-65
2021/04/29 16:36:21;;;;;;;7.68;3.58;;;;;;;10.49;34.48;100424.56;8016882;28;20457;-65
2021/04/29 16:40:13;;;;;;;7.43;3.20;;;;;;;10.53;34.26;100436.56;8015855;28;20688;-66
2021/04/29 16:44:04;;;;;;;4.20;3.10;;;;;;;10.57;34.29;100432.78;8023798;28;20040;-65
2021/04/29 16:47:55;;;;;;;6.18;3.05;;;;;;;10.60;34.31;100451.78;8022120;28;20044;-66
2021/04/29 16:51:46;;;;;;;4.55;2.85;;;;;;;10.65;34.32;100446.19;8013083;28;20039;-65
2021/04/29 16:55:36;;;;;;;4.75;2.80;;;;;;;10.68;34.23;100440.69;8018057;28;20064;-65
2021/04/29 16:59:27;;;;;;;3.72;2.70;;;;;;;10.68;34.10;100443.31;8022033;28;20454;-65
2021/04/29 17:03:18;;;;;;;3.80;3.00;;;;;;;10.70;34.08;100444.88;8018712;28;20069;-70
2021/04/29 17:07:09;;;;;;;5.53;2.83;;;;;;;10.67;33.96;100446.91;8017834;28;20036;-72
2021/04/29 17:11:00;;;;;;;4.30;2.85;;;;;;;10.65;34.08;100462.75;8016818;28;20090;-73
2021/04/29 17:14:51;;;;;;;3.53;3.15;;;;;;;10.60;34.30;100462.28;8010758;28;20060;-71
2021/04/29 17:18:41;;;;;;;7.03;2.92;;;;;;;10.56;34.11;100462.59;8010928;28;20037;-72
2021/04/29 17:22:39;;;;;;;;;;;;;;;10.47;34.00;100463.22;8005245;28;20116;-72
2021/04/29 17:26:30;;;;;;;6.22;2.53;;;;;;;10.49;34.26;100469.19;8009403;28;19920;-70
2021/04/29 17:30:22;;;;;;;5.15;2.60;;;;;;;10.46;34.10;100472.06;8011371;28;20036;-69
2021/04/29 17:34:14;;;;;;;3.53;2.67;;;;;;;10.45;34.05;100473.84;8020376;28;20037;-70
2021/04/29 17:38:05;;;;;;;3.30;2.80;;;;;;;10.38;34.35;100475.22;8018103;28;20090;-71
2021/04/29 17:41:55;;;;;;;5.68;2.88;;;;;;;10.26;34.09;100478.72;8013300;28;20044;-72
2021/04/29 17:45:47;;;;;;;4.28;2.88;;;;;;;10.19;34.03;100488.00;8012909;28;20052;-72
2021/04/29 17:49:38;;;;;;;4.80;2.42;;;;;;;10.13;34.21;100484.00;8012077;28;20060;-74
2021/04/29 17:53:29;;;;;;;3.55;2.78;;;;;;;10.08;34.23;100491.34;8015578;28;20035;-74
2021/04/29 17:57:19;;;;;;;5.82;2.60;;;;;;;10.05;34.53;100494.19;8021453;28;20481;-73
2021/04/29 18:01:10;;;;;;;3.65;2.42;;;;;;;10.08;34.29;100496.59;8015925;28;20516;-72